createdAt,value
2023-02-18T00:02:18.116Z,101919.00
2023-02-18T00:05:06.550Z,101916.00
2023-02-18T00:07:39.406Z,101910.00
2023-02-18T00:10:11.944Z,101914.00
2023-02-18T00:12:39.591Z,101889.00
2023-02-18T00:15:07.588Z,101897.00
2023-02-18T00:17:34.683Z,101901.00
2023-02-18T00:20:01.961Z,101895.00
2023-02-18T00:22:29.514Z,101912.00
2023-02-18T00:24:56.565Z,101899.00
2023-02-18T00:27:23.800Z,101884.00
2023-02-18T00:29:50.982Z,101888.00
2023-02-18T00:32:18.208Z,101894.00
2023-02-18T00:34:45.355Z,101882.00
2023-02-18T00:37:12.458Z,101889.00
2023-02-18T00:39:39.543Z,101884.00
2023-02-18T00:42:06.676Z,101877.00
2023-02-18T00:44:52.570Z,101874.00
2023-02-18T00:47:20.456Z,101878.00
2023-02-18T00:49:47.701Z,101876.00
2023-02-18T00:52:14.833Z,101872.00
2023-02-18T00:54:42.000Z,101870.00
2023-02-18T00:57:09.059Z,101874.00
2023-02-18T00:59:36.234Z,101864.00
2023-02-18T01:02:03.340Z,101850.00
2023-02-18T01:04:30.633Z,101870.00
2023-02-18T01:06:57.761Z,101865.00
2023-02-18T01:09:25.929Z,101857.00
2023-02-18T01:11:53.407Z,101845.00
2023-02-18T01:14:20.515Z,101851.00
2023-02-18T01:16:47.769Z,101835.00
2023-02-18T01:19:14.979Z,101841.00
2023-02-18T01:21:42.450Z,101834.00
2023-02-18T01:24:09.660Z,101838.00
2023-02-18T01:26:37.128Z,101836.00
2023-02-18T01:29:04.371Z,101829.00
2023-02-18T01:31:31.619Z,101836.00
2023-02-18T01:33:58.731Z,101837.00
2023-02-18T01:36:25.973Z,101825.00
2023-02-18T01:38:55.607Z,101832.00
2023-02-18T01:41:22.950Z,101828.00
2023-02-18T01:44:28.747Z,101822.00
2023-02-18T01:46:56.511Z,101822.00
2023-02-18T01:49:34.200Z,101818.00
2023-02-18T01:52:09.352Z,101816.00
2023-02-18T01:54:49.389Z,101814.00
2023-02-18T01:57:26.774Z,101815.00
2023-02-18T02:00:00.195Z,101808.00
2023-02-18T02:02:29.914Z,101805.00
2023-02-18T02:04:58.132Z,101801.00
2023-02-18T02:07:28.312Z,101790.00
2023-02-18T02:09:58.766Z,101787.00
2023-02-18T02:12:58.118Z,101783.00
2023-02-18T02:15:52.966Z,101790.00
2023-02-18T02:19:20.422Z,101785.00
2023-02-18T02:22:24.907Z,101775.00
2023-02-18T02:25:24.375Z,101791.00
2023-02-18T02:28:15.533Z,101786.00
2023-02-18T02:31:32.926Z,101774.00
2023-02-18T02:34:06.006Z,101767.00
2023-02-18T02:36:56.633Z,101770.00
2023-02-18T02:39:36.586Z,101764.00
2023-02-18T02:43:04.831Z,101766.00
2023-02-18T02:46:25.562Z,101754.00
2023-02-18T02:49:26.839Z,101755.00
2023-02-18T02:52:18.125Z,101755.00
2023-02-18T02:54:45.330Z,101751.00
2023-02-18T02:57:12.282Z,101740.00
2023-02-18T02:59:46.294Z,101745.00
2023-02-18T03:02:52.682Z,101740.00
2023-02-18T03:05:38.389Z,101738.00
2023-02-18T03:08:27.921Z,101750.00
2023-02-18T03:11:08.979Z,101744.00
2023-02-18T03:13:52.881Z,101729.00
2023-02-18T03:16:48.962Z,101729.00
2023-02-18T03:19:43.388Z,101725.00
2023-02-18T03:22:27.208Z,101715.00
2023-02-18T03:24:58.146Z,101710.00
2023-02-18T03:27:36.521Z,101702.00
2023-02-18T03:30:14.183Z,101693.00
2023-02-18T03:32:42.148Z,101685.00
2023-02-18T03:35:17.341Z,101668.00
2023-02-18T03:37:54.659Z,101661.00
2023-02-18T03:40:22.036Z,101657.00
2023-02-18T03:42:49.102Z,101651.00
2023-02-18T03:45:16.235Z,101657.00
2023-02-18T03:47:43.412Z,101655.00
2023-02-18T03:50:10.718Z,101654.00
2023-02-18T03:52:56.634Z,101655.00
2023-02-18T03:55:24.135Z,101647.00
2023-02-18T03:57:51.261Z,101642.00
2023-02-18T04:00:19.439Z,101638.00
2023-02-18T04:02:46.695Z,101639.00
2023-02-18T04:05:16.899Z,101633.00
2023-02-18T04:07:44.110Z,101632.00
2023-02-18T04:10:12.141Z,101637.00
2023-02-18T04:12:39.311Z,101640.00
2023-02-18T04:15:07.095Z,101632.00
2023-02-18T04:17:35.131Z,101628.00
2023-02-18T04:20:04.998Z,101624.00
2023-02-18T04:22:32.205Z,101619.00
2023-02-18T04:25:00.694Z,101620.00
2023-02-18T04:27:27.852Z,101614.00
2023-02-18T04:29:55.063Z,101615.00
2023-02-18T04:32:22.233Z,101613.00
2023-02-18T04:34:49.357Z,101609.00
2023-02-18T04:37:16.778Z,101622.00
2023-02-18T04:39:43.963Z,101624.00
2023-02-18T04:42:11.172Z,101621.00
2023-02-18T04:44:38.441Z,101602.00
2023-02-18T04:47:07.358Z,101603.00
2023-02-18T04:49:35.189Z,101602.00
2023-02-18T04:52:02.476Z,101600.00
2023-02-18T04:54:29.842Z,101606.00
2023-02-18T04:56:57.080Z,101605.00
2023-02-18T05:00:01.722Z,101597.00
2023-02-18T05:02:28.964Z,101600.00
2023-02-18T05:04:56.171Z,101596.00
2023-02-18T05:07:23.239Z,101597.00
2023-02-18T05:09:50.478Z,101591.00
2023-02-18T05:12:17.674Z,101579.00
2023-02-18T05:14:45.284Z,101572.00
2023-02-18T05:17:12.377Z,101572.00
2023-02-18T05:19:39.489Z,101569.00
2023-02-18T05:22:06.812Z,101571.00
2023-02-18T05:24:33.976Z,101573.00
2023-02-18T05:27:01.133Z,101574.00
2023-02-18T05:29:28.384Z,101567.00
2023-02-18T05:31:55.649Z,101557.00
2023-02-18T05:34:23.019Z,101560.00
2023-02-18T05:36:50.213Z,101559.00
2023-02-18T05:39:17.352Z,101531.00
2023-02-18T05:41:44.524Z,101540.00
2023-02-18T05:44:30.513Z,101539.00
2023-02-18T05:47:12.061Z,101530.00
2023-02-18T05:49:41.732Z,101531.00
2023-02-18T05:52:10.845Z,101538.00
2023-02-18T05:54:39.421Z,101538.00
2023-02-18T05:57:06.725Z,101534.00
2023-02-18T05:59:34.174Z,101527.00
2023-02-18T06:02:01.777Z,101533.00
2023-02-18T06:04:29.068Z,101525.00
2023-02-18T06:06:56.265Z,101531.00
2023-02-18T06:09:23.443Z,101528.00
2023-02-18T06:11:50.648Z,101540.00
2023-02-18T06:14:18.295Z,101537.00
2023-02-18T06:16:45.789Z,101531.00
2023-02-18T06:19:13.189Z,101522.00
2023-02-18T06:21:40.478Z,101525.00
2023-02-18T06:24:08.218Z,101516.00
2023-02-18T06:26:35.454Z,101504.00
2023-02-18T06:29:02.700Z,101516.00
2023-02-18T06:31:30.125Z,101518.00
2023-02-18T06:33:57.578Z,101526.00
2023-02-18T06:36:25.453Z,101531.00
2023-02-18T06:38:54.373Z,101531.00
2023-02-18T06:41:21.489Z,101531.00
2023-02-18T06:43:48.798Z,101532.00
2023-02-18T06:46:15.983Z,101524.00
2023-02-18T06:48:43.150Z,101528.00
2023-02-18T06:51:10.324Z,101528.00
2023-02-18T06:53:37.541Z,101527.00
2023-02-18T06:56:05.328Z,101539.00
2023-02-18T06:58:32.463Z,101521.00
2023-02-18T07:00:59.834Z,101536.00
2023-02-18T07:03:27.242Z,101531.00
2023-02-18T07:05:54.487Z,101532.00
2023-02-18T07:08:21.930Z,101535.00
2023-02-18T07:10:49.667Z,101521.00
2023-02-18T07:13:16.908Z,101536.00
2023-02-18T07:15:44.374Z,101536.00
2023-02-18T07:18:11.628Z,101536.00
2023-02-18T07:20:38.901Z,101540.00
2023-02-18T07:23:06.347Z,101537.00
2023-02-18T07:25:33.657Z,101548.00
2023-02-18T07:28:01.268Z,101528.00
2023-02-18T07:30:28.752Z,101551.00
2023-02-18T07:37:09.941Z,101558.00
2023-02-18T07:39:40.817Z,101562.00
2023-02-18T07:42:09.318Z,101571.00
2023-02-18T07:44:37.927Z,101565.00
2023-02-18T07:47:07.701Z,101547.00
2023-02-18T07:49:35.616Z,101554.00
2023-02-18T07:52:04.545Z,101565.00
2023-02-18T07:54:32.917Z,101572.00
2023-02-18T07:57:00.321Z,101571.00
2023-02-18T07:59:27.760Z,101571.00
2023-02-18T08:01:55.649Z,101593.00
2023-02-18T08:04:22.958Z,101583.00
2023-02-18T08:07:13.602Z,101583.00
2023-02-18T08:13:50.922Z,101578.00
2023-02-18T08:16:21.732Z,101574.00
2023-02-18T08:18:51.678Z,101570.00
2023-02-18T08:25:29.401Z,101564.00
2023-02-18T08:27:57.632Z,101564.00
2023-02-18T08:30:25.804Z,101562.00
2023-02-18T08:32:53.848Z,101559.00
2023-02-18T08:35:21.661Z,101571.00
2023-02-18T08:37:52.717Z,101573.00
2023-02-18T08:40:22.221Z,101580.00
2023-02-18T08:42:52.483Z,101561.00
2023-02-18T08:45:20.309Z,101561.00
2023-02-18T08:48:16.547Z,101576.00
2023-02-18T08:50:35.261Z,101562.00
2023-02-18T08:53:03.958Z,101566.00
2023-02-18T08:55:34.143Z,101568.00
2023-02-18T08:58:01.941Z,101583.00
2023-02-18T09:00:29.545Z,101569.00
2023-02-18T09:02:57.050Z,101561.00
2023-02-18T09:05:27.908Z,101568.00
2023-02-18T09:07:55.862Z,101572.00
2023-02-18T09:10:23.910Z,101570.00
2023-02-18T09:12:51.367Z,101569.00
2023-02-18T09:15:18.877Z,101570.00
2023-02-18T09:17:46.634Z,101567.00
2023-02-18T09:20:20.287Z,101564.00
2023-02-18T09:22:47.734Z,101560.00
2023-02-18T09:25:14.951Z,101564.00
2023-02-18T09:27:42.854Z,101546.00
2023-02-18T09:30:11.301Z,101567.00
2023-02-18T09:32:38.702Z,101560.00
2023-02-18T09:35:06.557Z,101561.00
2023-02-18T09:41:54.021Z,101555.00
2023-02-18T09:44:28.094Z,101552.00
2023-02-18T09:47:17.289Z,101564.00
2023-02-18T09:50:00.415Z,101553.00
2023-02-18T09:52:38.770Z,101567.00
2023-02-18T09:55:25.826Z,101546.00
2023-02-18T09:58:00.266Z,101549.00
2023-02-18T10:00:37.075Z,101553.00
2023-02-18T10:03:28.982Z,101568.00
2023-02-18T10:06:15.912Z,101552.00
2023-02-18T10:08:48.059Z,101556.00
2023-02-18T10:11:28.732Z,101564.00
2023-02-18T10:13:57.688Z,101562.00
2023-02-18T10:16:29.148Z,101567.00
2023-02-18T10:19:10.019Z,101581.00
2023-02-18T10:21:38.203Z,101579.00
2023-02-18T10:24:35.012Z,101578.00
2023-02-18T10:27:07.408Z,101584.00
2023-02-18T10:29:36.564Z,101580.00
2023-02-18T10:32:23.490Z,101588.00
2023-02-18T10:35:28.308Z,101589.00
2023-02-18T10:38:18.841Z,101594.00
2023-02-18T10:41:26.096Z,101593.00
2023-02-18T10:44:25.340Z,101613.00
2023-02-18T10:47:20.872Z,101608.00
2023-02-18T10:50:02.573Z,101596.00
2023-02-18T10:52:48.282Z,101602.00
2023-02-18T10:55:18.975Z,101598.00
2023-02-18T10:57:51.855Z,101597.00
2023-02-18T11:00:26.978Z,101600.00
2023-02-18T11:03:19.021Z,101618.00
2023-02-18T11:05:48.992Z,101617.00
2023-02-18T11:08:26.536Z,101619.00
2023-02-18T11:10:56.467Z,101613.00
2023-02-18T11:13:32.057Z,101612.00
2023-02-18T11:16:05.163Z,101605.00
2023-02-18T11:18:46.674Z,101600.00
2023-02-18T11:21:38.752Z,101605.00
2023-02-18T11:24:17.645Z,101607.00
2023-02-18T11:26:45.125Z,101609.00
2023-02-18T11:29:25.686Z,101615.00
2023-02-18T11:31:56.966Z,101617.00
2023-02-18T11:34:32.854Z,101617.00
2023-02-18T11:37:33.106Z,101615.00
2023-02-18T11:40:34.471Z,101608.00
2023-02-18T11:43:20.914Z,101621.00
2023-02-18T11:46:18.049Z,101605.00
2023-02-18T11:48:46.711Z,101618.00
2023-02-18T11:51:20.399Z,101609.00
2023-02-18T11:54:31.685Z,101615.00
2023-02-18T11:57:07.055Z,101612.00
2023-02-18T11:59:38.916Z,101609.00
2023-02-18T12:02:35.977Z,101599.00
2023-02-18T12:05:21.473Z,101606.00
2023-02-18T12:07:55.680Z,101614.00
2023-02-18T12:10:46.565Z,101606.00
2023-02-18T12:13:28.879Z,101597.00
2023-02-18T12:16:36.623Z,101603.00
2023-02-18T12:19:37.368Z,101593.00
2023-02-18T12:22:44.714Z,101592.00
2023-02-18T12:25:24.442Z,101584.00
2023-02-18T12:28:25.487Z,101591.00
2023-02-18T12:31:19.914Z,101603.00
2023-02-18T12:33:47.003Z,101587.00
2023-02-18T12:37:17.515Z,101598.00
2023-02-18T12:40:21.602Z,101592.00
2023-02-18T12:43:32.764Z,101586.00
2023-02-18T12:46:26.040Z,101592.00
2023-02-18T12:49:28.082Z,101588.00
2023-02-18T12:52:21.022Z,101593.00
2023-02-18T12:55:22.219Z,101593.00
2023-02-18T12:58:26.343Z,101595.00
2023-02-18T13:01:05.771Z,101585.00
2023-02-18T13:03:56.730Z,101581.00
2023-02-18T13:07:09.850Z,101587.00
2023-02-18T13:14:17.192Z,101586.00
2023-02-18T13:16:51.627Z,101590.00
2023-02-18T13:20:00.322Z,101587.00
2023-02-18T13:22:32.246Z,101580.00
2023-02-18T13:25:00.874Z,101577.00
2023-02-18T13:27:52.580Z,101577.00
2023-02-18T13:35:12.079Z,101569.00
2023-02-18T13:37:49.026Z,101581.00
2023-02-18T13:41:13.018Z,101577.00
2023-02-18T13:43:42.318Z,101584.00
2023-02-18T13:46:28.955Z,101581.00
2023-02-18T13:49:13.770Z,101572.00
2023-02-18T13:52:20.464Z,101563.00
2023-02-18T13:54:56.355Z,101567.00
2023-02-18T13:57:40.496Z,101560.00
2023-02-18T14:00:28.386Z,101559.00
2023-02-18T14:03:21.115Z,101562.00
2023-02-18T14:05:58.346Z,101562.00
2023-02-18T14:08:39.249Z,101568.00
2023-02-18T14:11:17.107Z,101571.00
2023-02-18T14:17:30.209Z,101576.00
2023-02-18T14:20:07.075Z,101571.00
2023-02-18T14:22:56.109Z,101573.00
2023-02-18T14:25:42.594Z,101576.00
2023-02-18T14:28:34.878Z,101580.00
2023-02-18T14:31:14.130Z,101579.00
2023-02-18T14:33:51.813Z,101578.00
2023-02-18T14:36:48.423Z,101569.00
2023-02-18T14:39:46.380Z,101571.00
2023-02-18T14:42:44.280Z,101580.00
2023-02-18T14:45:46.508Z,101565.00
2023-02-18T14:48:51.468Z,101572.00
2023-02-18T14:51:24.261Z,101560.00
2023-02-18T14:54:01.571Z,101566.00
2023-02-18T15:00:47.338Z,101565.00
2023-02-18T15:03:19.565Z,101579.00
2023-02-18T15:05:56.759Z,101561.00
2023-02-18T15:08:31.332Z,101561.00
2023-02-18T15:11:15.868Z,101563.00
2023-02-18T15:13:46.171Z,101579.00
2023-02-18T15:20:47.371Z,101565.00
2023-02-18T15:27:47.791Z,101580.00
2023-02-18T15:30:20.126Z,101565.00
2023-02-18T15:33:00.672Z,101557.00
2023-02-18T15:35:31.694Z,101568.00
2023-02-18T15:38:01.434Z,101568.00
2023-02-18T15:40:53.745Z,101561.00
2023-02-18T15:43:30.189Z,101563.00
2023-02-18T15:45:59.522Z,101569.00
2023-02-18T15:48:45.391Z,101575.00
2023-02-18T15:51:19.809Z,101567.00
2023-02-18T15:53:52.681Z,101569.00
2023-02-18T15:56:41.444Z,101568.00
2023-02-18T15:59:28.345Z,101575.00
2023-02-18T16:02:14.969Z,101569.00
2023-02-18T16:04:47.172Z,101569.00
2023-02-18T16:07:22.306Z,101571.00
2023-02-18T16:09:49.923Z,101568.00
2023-02-18T16:12:32.604Z,101565.00
2023-02-18T16:15:01.141Z,101564.00
2023-02-18T16:18:24.669Z,101563.00
2023-02-18T16:21:06.482Z,101563.00
2023-02-18T16:23:46.116Z,101558.00
2023-02-18T16:26:43.718Z,101566.00
2023-02-18T16:29:24.911Z,101579.00
2023-02-18T16:31:53.204Z,101576.00
2023-02-18T16:34:20.705Z,101567.00
2023-02-18T16:37:06.498Z,101570.00
2023-02-18T16:39:35.556Z,101576.00
2023-02-18T16:42:03.290Z,101563.00
2023-02-18T16:44:33.583Z,101578.00
2023-02-18T16:47:01.416Z,101575.00
2023-02-18T16:49:30.894Z,101574.00
2023-02-18T16:52:01.526Z,101580.00
2023-02-18T16:54:29.260Z,101579.00
2023-02-18T16:56:56.563Z,101574.00
2023-02-18T16:59:23.883Z,101586.00
2023-02-18T17:01:51.140Z,101586.00
2023-02-18T17:04:38.471Z,101582.00
2023-02-18T17:07:11.459Z,101585.00
2023-02-18T17:09:38.848Z,101585.00
2023-02-18T17:12:06.416Z,101575.00
2023-02-18T17:14:33.877Z,101579.00
2023-02-18T17:17:01.134Z,101570.00
2023-02-18T17:19:28.456Z,101586.00
2023-02-18T17:21:56.683Z,101598.00
2023-02-18T17:24:23.945Z,101596.00
2023-02-18T17:26:51.103Z,101591.00
2023-02-18T17:29:19.747Z,101593.00
2023-02-18T17:31:49.441Z,101593.00
2023-02-18T17:34:26.269Z,101591.00
2023-02-18T17:36:54.294Z,101596.00
2023-02-18T17:39:21.823Z,101587.00
2023-02-18T17:41:49.103Z,101592.00
2023-02-18T17:44:18.570Z,101586.00
2023-02-18T17:46:46.621Z,101591.00
2023-02-18T17:49:13.725Z,101600.00
2023-02-18T17:51:41.290Z,101597.00
2023-02-18T17:54:15.721Z,101595.00
2023-02-18T17:56:47.316Z,101594.00
2023-02-18T17:59:15.233Z,101586.00
2023-02-18T18:01:43.448Z,101593.00
2023-02-18T18:04:16.835Z,101584.00
2023-02-18T18:06:45.845Z,101593.00
2023-02-18T18:09:13.528Z,101595.00
2023-02-18T18:11:42.166Z,101593.00
2023-02-18T18:14:15.197Z,101588.00
2023-02-18T18:16:42.674Z,101590.00
2023-02-18T18:19:09.813Z,101594.00
2023-02-18T18:21:56.943Z,101599.00
2023-02-18T18:24:24.236Z,101596.00
2023-02-18T18:26:53.475Z,101592.00
2023-02-18T18:29:20.574Z,101589.00
2023-02-18T18:31:48.118Z,101589.00
2023-02-18T18:34:19.513Z,101581.00
2023-02-18T18:37:45.138Z,101585.00
2023-02-18T18:40:12.417Z,101578.00
2023-02-18T18:42:44.197Z,101583.00
2023-02-18T18:45:34.426Z,101582.00
2023-02-18T18:48:02.062Z,101583.00
2023-02-18T18:50:29.668Z,101583.00
2023-02-18T18:52:57.097Z,101584.00
2023-02-18T18:55:36.136Z,101590.00
2023-02-18T18:58:03.874Z,101590.00
2023-02-18T19:00:42.288Z,101583.00
2023-02-18T19:03:12.977Z,101560.00
2023-02-18T19:09:51.978Z,101549.00
2023-02-18T19:12:19.754Z,101572.00
2023-02-18T19:18:59.969Z,101565.00
2023-02-18T19:21:28.071Z,101572.00
2023-02-18T19:23:56.229Z,101579.00
2023-02-18T19:26:24.990Z,101574.00
2023-02-18T19:28:52.401Z,101579.00
2023-02-18T19:31:24.750Z,101570.00
2023-02-18T19:33:55.281Z,101565.00
2023-02-18T19:36:23.062Z,101558.00
2023-02-18T19:42:51.728Z,101562.00
2023-02-18T19:45:21.213Z,101560.00
2023-02-18T19:52:06.025Z,101556.00
2023-02-18T19:58:35.005Z,101554.00
2023-02-18T20:01:05.804Z,101541.00
2023-02-18T20:07:43.417Z,101543.00
2023-02-18T20:11:08.482Z,101529.00
2023-02-18T20:13:35.809Z,101536.00
2023-02-18T20:16:07.673Z,101526.00
2023-02-18T20:18:35.049Z,101523.00
2023-02-18T20:21:02.727Z,101525.00
2023-02-18T20:23:30.035Z,101530.00
2023-02-18T20:25:57.496Z,101530.00
2023-02-18T20:28:24.716Z,101532.00
2023-02-18T20:31:10.462Z,101535.00
2023-02-18T20:33:39.102Z,101534.00
2023-02-18T20:36:08.701Z,101519.00
2023-02-18T20:38:39.270Z,101523.00
2023-02-18T20:41:09.886Z,101530.00
2023-02-18T20:43:38.071Z,101521.00
2023-02-18T20:46:08.677Z,101509.00
2023-02-18T20:48:37.016Z,101511.00
2023-02-18T20:51:12.072Z,101510.00
2023-02-18T20:53:42.395Z,101506.00
2023-02-18T20:56:10.098Z,101496.00
2023-02-18T20:58:37.442Z,101497.00
2023-02-18T21:01:12.607Z,101485.00
2023-02-18T21:03:41.646Z,101487.00
2023-02-18T21:06:16.436Z,101483.00
2023-02-18T21:08:46.515Z,101489.00
2023-02-18T21:11:19.656Z,101490.00
2023-02-18T21:13:50.113Z,101496.00
2023-02-18T21:16:19.621Z,101502.00
2023-02-18T21:18:47.915Z,101502.00
2023-02-18T21:21:16.380Z,101509.00
2023-02-18T21:23:44.228Z,101507.00
2023-02-18T21:26:18.837Z,101499.00
2023-02-18T21:28:56.752Z,101502.00
2023-02-18T21:31:29.401Z,101508.00
2023-02-18T21:33:57.040Z,101498.00
2023-02-18T21:36:25.542Z,101494.00
2023-02-18T21:38:58.873Z,101495.00
2023-02-18T21:41:28.030Z,101501.00
2023-02-18T21:43:55.439Z,101502.00
2023-02-18T21:46:26.973Z,101500.00
2023-02-18T21:49:09.448Z,101496.00
2023-02-18T21:52:08.677Z,101490.00
2023-02-18T21:54:42.112Z,101487.00
2023-02-18T21:57:22.192Z,101484.00
2023-02-18T21:59:49.544Z,101490.00
2023-02-18T22:02:45.971Z,101486.00
2023-02-18T22:05:13.130Z,101479.00
2023-02-18T22:07:40.445Z,101464.00
2023-02-18T22:10:14.097Z,101468.00
2023-02-18T22:12:44.363Z,101460.00
2023-02-18T22:15:12.088Z,101452.00
2023-02-18T22:18:35.840Z,101443.00
2023-02-18T22:21:12.598Z,101431.00
2023-02-18T22:23:40.695Z,101438.00
2023-02-18T22:26:10.969Z,101418.00
2023-02-18T22:28:38.197Z,101409.00
2023-02-18T22:31:13.829Z,101427.00
2023-02-18T22:33:43.939Z,101450.00
2023-02-18T22:36:12.001Z,101438.00
2023-02-18T22:38:40.145Z,101427.00
2023-02-18T22:41:11.309Z,101421.00
2023-02-18T22:43:42.705Z,101449.00
2023-02-18T22:46:17.155Z,101442.00
2023-02-18T22:48:48.295Z,101444.00
2023-02-18T22:51:25.179Z,101460.00
2023-02-18T22:53:55.875Z,101458.00
2023-02-18T22:56:26.560Z,101469.00
2023-02-18T22:58:56.969Z,101470.00
2023-02-18T23:01:38.574Z,101464.00
2023-02-18T23:04:12.881Z,101463.00
2023-02-18T23:06:44.901Z,101457.00
2023-02-18T23:09:23.081Z,101454.00
2023-02-18T23:11:56.518Z,101459.00
2023-02-18T23:14:29.734Z,101457.00
2023-02-18T23:17:15.124Z,101451.00
2023-02-18T23:19:46.841Z,101445.00
2023-02-18T23:26:55.618Z,101433.00
2023-02-18T23:29:25.632Z,101443.00
2023-02-18T23:31:53.590Z,101447.00
2023-02-18T23:34:21.693Z,101435.00
2023-02-18T23:36:52.852Z,101424.00
2023-02-18T23:39:24.540Z,101433.00
2023-02-18T23:41:53.047Z,101436.00
2023-02-18T23:48:32.268Z,101448.00
2023-02-18T23:55:10.994Z,101432.00
2023-02-18T23:57:41.778Z,101435.00
